createdAt,value
2023-03-15T00:01:39.977Z,5.78
2023-03-15T00:06:46.906Z,5.88
2023-03-15T00:11:53.469Z,5.88
2023-03-15T00:17:00.112Z,5.88
2023-03-15T00:22:06.526Z,5.98
2023-03-15T00:27:13.390Z,1.32
2023-03-15T00:32:19.647Z,5.17
2023-03-15T00:37:26.495Z,7.30
2023-03-15T00:42:35.911Z,4.26
2023-03-15T00:47:43.067Z,5.98
2023-03-15T00:52:49.425Z,5.98
2023-03-15T00:57:56.142Z,6.29
2023-03-15T01:03:02.205Z,5.98
2023-03-15T01:08:08.776Z,5.07
2023-03-15T01:13:15.238Z,5.27
2023-03-15T01:18:21.856Z,6.19
2023-03-15T01:23:28.456Z,5.68
2023-03-15T01:28:35.298Z,5.37
2023-03-15T01:33:42.833Z,6.59
2023-03-15T01:38:49.536Z,5.68
2023-03-15T01:43:55.992Z,6.08
2023-03-15T01:49:02.760Z,5.58
2023-03-15T01:54:09.289Z,5.78
2023-03-15T01:59:15.829Z,7.00
2023-03-15T02:04:22.360Z,6.08
2023-03-15T02:09:29.454Z,4.87
2023-03-15T02:14:35.898Z,5.98
2023-03-15T02:19:42.965Z,4.56
2023-03-15T02:24:49.357Z,7.30
2023-03-15T02:29:56.089Z,5.37
2023-03-15T02:35:02.826Z,5.98
2023-03-15T02:40:09.519Z,7.50
2023-03-15T02:45:15.989Z,6.79
2023-03-15T02:50:22.640Z,5.98
2023-03-15T02:55:29.109Z,7.00
2023-03-15T03:00:36.014Z,4.97
2023-03-15T03:05:43.205Z,5.68
2023-03-15T03:10:49.954Z,6.29
2023-03-15T03:15:56.433Z,4.56
2023-03-15T03:21:04.541Z,7.81
2023-03-15T03:26:10.839Z,5.78
2023-03-15T03:31:17.974Z,6.39
2023-03-15T03:36:24.324Z,6.39
2023-03-15T03:41:31.199Z,5.78
2023-03-15T03:46:39.683Z,5.78
2023-03-15T03:51:46.339Z,6.39
2023-03-15T03:56:53.104Z,8.72
2023-03-15T04:01:59.882Z,5.58
2023-03-15T04:07:08.272Z,6.90
2023-03-15T04:12:14.927Z,5.88
2023-03-15T04:17:21.361Z,9.13
2023-03-15T04:22:28.115Z,9.94
2023-03-15T04:27:34.728Z,6.29
2023-03-15T04:32:41.386Z,9.02
2023-03-15T04:37:47.730Z,6.79
2023-03-15T04:42:54.668Z,9.33
2023-03-15T04:48:01.223Z,6.49
2023-03-15T04:53:07.992Z,6.90
2023-03-15T04:58:14.382Z,6.08
2023-03-15T05:03:21.335Z,5.17
2023-03-15T05:08:28.240Z,5.88
2023-03-15T05:13:34.889Z,5.98
2023-03-15T05:18:41.220Z,6.69
2023-03-15T05:23:48.037Z,6.08
2023-03-15T05:28:54.671Z,6.79
2023-03-15T05:34:01.239Z,5.27
2023-03-15T05:39:07.848Z,4.36
2023-03-15T05:44:16.538Z,4.97
2023-03-15T05:49:23.249Z,5.98
2023-03-15T05:54:29.776Z,7.10
2023-03-15T05:59:36.319Z,5.07
2023-03-15T06:04:43.076Z,1.83
2023-03-15T06:09:49.697Z,6.08
2023-03-15T06:14:57.383Z,6.08
2023-03-15T06:20:03.914Z,5.78
2023-03-15T06:25:11.838Z,5.07
2023-03-15T06:30:18.240Z,5.58
2023-03-15T06:35:25.914Z,5.98
2023-03-15T06:40:32.475Z,5.98
2023-03-15T06:45:40.096Z,7.10
2023-03-15T06:50:47.704Z,6.39
2023-03-15T06:55:52.240Z,7.00
2023-03-15T07:00:58.814Z,8.01
2023-03-15T07:06:05.400Z,6.08
2023-03-15T07:11:11.913Z,5.78
2023-03-15T07:16:18.617Z,5.98
2023-03-15T07:21:25.056Z,7.00
2023-03-15T07:26:31.852Z,5.98
2023-03-15T07:31:39.137Z,5.27
2023-03-15T07:36:45.847Z,7.00
2023-03-15T07:41:53.276Z,5.98
2023-03-15T07:47:00.207Z,8.92
2023-03-15T07:52:06.458Z,5.88
2023-03-15T07:57:13.437Z,5.07
2023-03-15T08:02:20.112Z,6.08
2023-03-15T08:07:26.735Z,6.08
2023-03-15T08:12:34.012Z,5.98
2023-03-15T08:17:40.908Z,5.88
2023-03-15T08:22:47.229Z,5.98
2023-03-15T08:27:53.788Z,5.98
2023-03-15T08:33:01.183Z,5.88
2023-03-15T08:38:08.875Z,5.98
2023-03-15T08:43:15.413Z,7.00
2023-03-15T08:48:22.219Z,5.07
2023-03-15T08:53:28.634Z,5.98
2023-03-15T08:58:36.673Z,4.97
2023-03-15T09:03:43.209Z,6.59
2023-03-15T09:08:50.011Z,4.87
2023-03-15T09:14:03.161Z,5.27
2023-03-15T09:19:00.332Z,4.36
2023-03-15T09:24:07.281Z,5.68
2023-03-15T09:29:14.010Z,5.58
2023-03-15T09:34:21.868Z,3.75
2023-03-15T09:39:26.699Z,6.08
2023-03-15T09:44:34.280Z,2.74
2023-03-15T09:49:40.994Z,5.88
2023-03-15T09:54:47.952Z,5.98
2023-03-15T09:59:54.478Z,4.36
2023-03-15T10:05:01.479Z,1.01
2023-03-15T10:10:08.696Z,4.36
2023-03-15T10:15:17.001Z,3.45
2023-03-15T10:20:23.572Z,3.24
2023-03-15T10:25:30.206Z,6.08
2023-03-15T10:30:38.539Z,3.65
2023-03-15T10:35:46.817Z,4.97
2023-03-15T10:40:53.243Z,5.17
2023-03-15T10:45:59.919Z,2.23
2023-03-15T10:51:06.423Z,5.68
2023-03-15T10:56:14.359Z,3.92
2023-03-15T11:01:20.780Z,2.03
2023-03-15T11:06:27.666Z,2.27
2023-03-15T11:11:34.006Z,1.24
2023-03-15T11:16:40.692Z,1.24
2023-03-15T11:21:47.139Z,0.71
2023-03-15T11:26:56.107Z,2.89
2023-03-15T11:32:02.485Z,1.11
2023-03-15T11:37:11.604Z,1.42
2023-03-15T11:42:17.342Z,0.00
2023-03-15T11:47:25.124Z,0.53
2023-03-15T11:52:32.551Z,0.00
2023-03-15T11:57:39.171Z,0.94
2023-03-15T12:02:45.292Z,0.85
2023-03-15T12:07:51.991Z,2.50
2023-03-15T12:12:59.279Z,2.44
2023-03-15T12:18:07.996Z,0.38
2023-03-15T12:23:14.082Z,1.38
2023-03-15T12:28:20.482Z,0.35
2023-03-15T12:33:26.690Z,0.89
2023-03-15T12:38:33.605Z,0.00
2023-03-15T12:43:39.887Z,0.00
2023-03-15T12:48:46.224Z,0.00
2023-03-15T12:53:52.443Z,0.41
2023-03-15T12:58:59.117Z,2.74
2023-03-15T13:04:06.664Z,1.32
2023-03-15T13:09:13.213Z,1.32
2023-03-15T13:14:20.353Z,1.01
2023-03-15T13:19:27.256Z,2.13
2023-03-15T13:24:35.288Z,1.01
2023-03-15T13:29:42.071Z,3.14
2023-03-15T13:34:49.656Z,1.76
2023-03-15T13:39:58.302Z,1.12
2023-03-15T13:45:05.292Z,1.32
2023-03-15T13:50:12.116Z,1.62
2023-03-15T13:55:18.135Z,0.00
2023-03-15T14:00:25.094Z,0.00
2023-03-15T14:05:31.153Z,0.41
2023-03-15T14:10:37.783Z,0.00
2023-03-15T14:15:44.016Z,0.81
2023-03-15T14:20:50.751Z,0.30
2023-03-15T14:25:56.836Z,3.04
2023-03-15T14:31:03.243Z,0.41
2023-03-15T14:36:10.207Z,0.30
2023-03-15T14:41:15.824Z,1.42
2023-03-15T14:46:23.452Z,1.72
2023-03-15T14:51:29.844Z,1.32
2023-03-15T14:56:36.163Z,2.23
2023-03-15T15:01:46.492Z,0.00
2023-03-15T15:06:49.971Z,0.00
2023-03-15T15:11:56.884Z,0.30
2023-03-15T15:17:03.090Z,0.00
2023-03-15T15:22:09.752Z,3.14
2023-03-15T15:27:15.932Z,1.93
2023-03-15T15:32:22.742Z,0.81
2023-03-15T15:37:28.986Z,0.30
2023-03-15T15:42:35.521Z,0.00
2023-03-15T15:47:41.749Z,0.30
2023-03-15T15:52:48.368Z,0.00
2023-03-15T15:57:56.670Z,1.12
2023-03-15T16:03:03.486Z,1.62
2023-03-15T16:08:10.856Z,2.80
2023-03-15T16:13:17.118Z,0.00
2023-03-15T16:18:24.330Z,0.81
2023-03-15T16:23:30.962Z,0.10
2023-03-15T16:28:37.071Z,1.12
2023-03-15T16:33:44.392Z,3.92
2023-03-15T16:38:51.656Z,0.00
2023-03-15T16:43:58.264Z,2.34
2023-03-15T16:49:04.497Z,1.52
2023-03-15T16:54:21.695Z,1.12
2023-03-15T16:59:17.141Z,3.88
2023-03-15T17:04:24.594Z,1.71
2023-03-15T17:09:31.209Z,5.98
2023-03-15T17:14:37.488Z,4.83
2023-03-15T17:19:44.113Z,1.93
2023-03-15T17:24:50.319Z,3.14
2023-03-15T17:29:56.686Z,4.16
2023-03-15T17:35:03.236Z,3.85
2023-03-15T17:40:09.228Z,7.30
2023-03-15T17:45:15.969Z,6.39
2023-03-15T17:50:40.066Z,5.98
2023-03-15T17:55:26.557Z,2.43
2023-03-15T18:00:32.723Z,7.81
2023-03-15T18:05:39.019Z,5.78
2023-03-15T18:10:45.438Z,5.98
2023-03-15T18:15:58.122Z,5.27
2023-03-15T18:20:54.485Z,6.39
2023-03-15T18:26:02.084Z,5.88
2023-03-15T18:31:08.236Z,5.78
2023-03-15T18:36:14.745Z,7.91
2023-03-15T18:41:21.057Z,5.68
2023-03-15T18:46:27.078Z,6.29
2023-03-15T18:51:32.883Z,5.88
2023-03-15T18:56:39.490Z,5.98
2023-03-15T19:01:45.725Z,6.59
2023-03-15T19:06:52.406Z,5.98
2023-03-15T19:11:58.456Z,5.88
2023-03-15T19:17:05.041Z,5.37
2023-03-15T19:22:11.090Z,5.68
2023-03-15T19:27:17.597Z,5.98
2023-03-15T19:32:23.806Z,6.69
2023-03-15T19:37:31.194Z,8.82
2023-03-15T19:42:37.504Z,4.26
2023-03-15T19:47:45.069Z,7.00
2023-03-15T19:52:51.490Z,7.91
2023-03-15T19:57:58.896Z,4.66
2023-03-15T20:03:05.066Z,5.98
2023-03-15T20:08:11.737Z,7.10
2023-03-15T20:13:18.245Z,7.71
2023-03-15T20:18:25.078Z,6.69
2023-03-15T20:23:32.481Z,5.78
2023-03-15T20:28:38.962Z,6.08
2023-03-15T20:33:45.781Z,5.88
2023-03-15T20:38:53.334Z,9.63
2023-03-15T20:43:59.643Z,8.21
2023-03-15T20:49:08.048Z,7.00
2023-03-15T20:54:14.296Z,6.08
2023-03-15T20:59:21.059Z,9.63
2023-03-15T21:04:27.196Z,10.44
2023-03-15T21:09:33.848Z,5.88
2023-03-15T21:14:40.117Z,8.21
2023-03-15T21:19:47.702Z,7.30
2023-03-15T21:24:56.185Z,5.17
2023-03-15T21:30:00.117Z,6.29
2023-03-15T21:35:06.210Z,6.59
2023-03-15T21:40:12.844Z,5.98
2023-03-15T21:45:20.297Z,6.08
2023-03-15T21:50:27.263Z,6.08
2023-03-15T21:55:32.764Z,8.62
2023-03-15T22:00:39.151Z,6.08
2023-03-15T22:05:46.226Z,5.98
2023-03-15T22:10:52.978Z,6.08
2023-03-15T22:15:59.128Z,6.29
2023-03-15T22:21:05.562Z,7.50
2023-03-15T22:26:11.693Z,6.59
2023-03-15T22:31:18.526Z,7.81
2023-03-15T22:36:25.845Z,5.78
2023-03-15T22:41:32.582Z,5.98
2023-03-15T22:46:39.639Z,8.62
2023-03-15T22:51:46.356Z,5.98
2023-03-15T22:56:52.513Z,7.10
2023-03-15T23:01:58.935Z,8.62
2023-03-15T23:07:05.246Z,9.02
2023-03-15T23:12:11.748Z,7.10
2023-03-15T23:17:18.046Z,6.69
2023-03-15T23:22:24.679Z,6.39
2023-03-15T23:27:30.868Z,5.58
2023-03-15T23:32:38.594Z,6.90
2023-03-15T23:37:44.958Z,5.98
2023-03-15T23:42:51.660Z,4.06
2023-03-15T23:47:57.896Z,6.79
2023-03-15T23:53:04.676Z,5.88
2023-03-15T23:58:12.064Z,6.39
